Time;durP1;ratioP1;P1;durP2;ratioP2;P2;SDS_P1;SDS_P2;PMS_P1;PMS_P2;Temp;Humidity;BMP_temperature;BMP_pressure;BME280_temperature;BME280_humidity;BME280_pressure;Samples;Min_cycle;Max_cycle;Signal;HPM_P1;HPM_P2
2022/02/25 00:02:05;;;;;;;3.88;1.98;;;3.10;99.90;;;;;;5058250;28;20032;-71
2022/02/25 00:04:32;;;;;;;5.63;1.70;;;3.10;99.90;;;;;;5075745;28;20028;-71
2022/02/25 00:07:00;;;;;;;5.15;3.00;;;3.10;99.90;;;;;;5075873;28;20032;-71
2022/02/25 00:09:27;;;;;;;6.20;2.88;;;3.10;99.90;;;;;;5076356;28;20028;-71
2022/02/25 00:11:54;;;;;;;5.60;2.38;;;3.10;99.90;;;;;;5076815;28;20024;-71
2022/02/25 00:14:22;;;;;;;5.30;2.42;;;3.10;99.90;;;;;;5063216;28;20025;-71
2022/02/25 00:16:50;;;;;;;9.05;3.33;;;3.10;99.90;;;;;;5080240;28;20411;-71
2022/02/25 00:19:18;;;;;;;5.47;2.42;;;3.10;99.90;;;;;;5080199;28;20032;-71
2022/02/25 00:21:45;;;;;;;6.60;3.72;;;3.10;99.90;;;;;;5080303;28;20021;-71
2022/02/25 00:24:13;;;;;;;6.63;2.88;;;3.10;99.90;;;;;;5080089;28;20127;-71
2022/02/25 00:26:41;;;;;;;6.18;2.20;;;3.10;99.90;;;;;;5079507;28;20035;-71
2022/02/25 00:29:08;;;;;;;4.88;2.40;;;3.10;99.90;;;;;;5079044;28;20024;-71
2022/02/25 00:31:36;;;;;;;7.72;3.35;;;3.10;99.90;;;;;;5062122;28;20035;-71
2022/02/25 00:34:03;;;;;;;5.47;3.22;;;3.10;99.90;;;;;;5078949;28;20424;-71
2022/02/25 00:36:31;;;;;;;4.70;2.60;;;3.00;99.90;;;;;;5061450;28;20328;-71
2022/02/25 00:38:58;;;;;;;9.20;3.38;;;3.00;99.90;;;;;;5079151;28;20023;-71
2022/02/25 00:41:25;;;;;;;5.55;2.97;;;3.00;99.90;;;;;;5079303;28;20025;-71
2022/02/25 00:43:53;;;;;;;6.10;3.10;;;3.00;99.90;;;;;;5078937;28;20028;-71
2022/02/25 00:46:20;;;;;;;7.72;3.80;;;2.90;99.90;;;;;;5079455;28;20020;-71
2022/02/25 00:48:49;;;;;;;6.63;2.28;;;2.90;99.90;;;;;;5079639;28;20025;-71
2022/02/25 00:51:18;;;;;;;7.03;2.90;;;2.90;99.90;;;;;;5079659;28;20025;-71
2022/02/25 00:53:46;;;;;;;4.40;2.97;;;2.80;99.90;;;;;;5079436;28;20020;-71
2022/02/25 00:56:13;;;;;;;8.43;2.90;;;2.80;99.90;;;;;;5079548;28;20090;-71
2022/02/25 00:58:41;;;;;;;6.55;3.40;;;2.80;99.90;;;;;;5079988;28;20023;-71
2022/02/25 01:01:09;;;;;;;4.00;2.53;;;2.80;99.90;;;;;;5079813;28;20028;-71
2022/02/25 01:03:37;;;;;;;4.22;2.70;;;2.80;99.90;;;;;;5078626;28;20021;-71
2022/02/25 01:06:04;;;;;;;7.47;2.30;;;2.70;99.90;;;;;;5078944;28;20286;-71
2022/02/25 01:08:31;;;;;;;3.75;2.60;;;2.70;99.90;;;;;;5078314;28;20096;-71
2022/02/25 01:10:58;;;;;;;3.15;2.08;;;2.70;99.90;;;;;;5078723;28;20020;-71
2022/02/25 01:13:25;;;;;;;8.15;2.03;;;2.60;99.90;;;;;;5078749;28;20050;-71
2022/02/25 01:15:53;;;;;;;5.72;2.05;;;2.60;99.90;;;;;;5060882;28;20047;-71
2022/02/25 01:18:20;;;;;;;4.20;2.45;;;2.60;99.90;;;;;;5078034;28;20028;-71
2022/02/25 01:20:48;;;;;;;6.60;2.70;;;2.60;99.90;;;;;;5078256;28;20047;-71
2022/02/25 01:23:15;;;;;;;6.57;2.67;;;2.60;99.90;;;;;;5078270;28;20052;-71
2022/02/25 01:25:43;;;;;;;4.28;2.40;;;2.50;99.90;;;;;;5078110;28;20056;-71
2022/02/25 01:28:10;;;;;;;6.10;2.78;;;2.50;99.90;;;;;;5061177;28;20025;-71
2022/02/25 01:30:38;;;;;;;5.95;2.90;;;2.50;99.90;;;;;;5079558;28;20024;-71
2022/02/25 01:33:06;;;;;;;7.18;2.90;;;2.40;99.90;;;;;;5079650;28;20032;-71
2022/02/25 01:35:35;;;;;;;6.18;2.67;;;2.50;99.90;;;;;;5078825;28;20025;-71
2022/02/25 01:38:02;;;;;;;10.27;3.00;;;2.40;99.90;;;;;;5078670;28;20024;-71
2022/02/25 01:40:29;;;;;;;7.47;3.22;;;2.40;99.90;;;;;;5078088;28;20017;-71
2022/02/25 01:42:58;;;;;;;8.32;3.53;;;2.40;99.90;;;;;;5078179;28;20025;-71
2022/02/25 01:45:26;;;;;;;7.45;3.65;;;2.40;99.90;;;;;;5077521;28;20089;-71
2022/02/25 01:47:53;;;;;;;10.20;3.40;;;2.40;99.90;;;;;;5077856;28;20024;-71
2022/02/25 01:50:21;;;;;;;8.45;3.45;;;2.40;99.90;;;;;;5043532;28;20028;-71
2022/02/25 01:53:08;;;;;;;6.72;3.58;;;2.30;99.90;;;;;;5077390;28;20027;-71
2022/02/25 01:55:36;;;;;;;;;;;2.30;99.90;;;;;;5077725;28;20031;-71
2022/02/25 01:58:04;;;;;;;5.95;3.00;;;2.30;99.90;;;;;;5077629;28;20185;-71
2022/02/25 02:00:33;;;;;;;9.18;4.80;;;2.20;99.90;;;;;;5078361;28;20017;-71
2022/02/25 02:03:00;;;;;;;8.70;3.63;;;2.20;99.90;;;;;;5078733;28;20025;-71
2022/02/25 02:05:28;;;;;;;6.78;4.30;;;2.20;99.90;;;;;;5060442;28;20056;-71
2022/02/25 02:07:56;;;;;;;6.65;4.25;;;2.20;99.90;;;;;;5078098;28;20024;-71
2022/02/25 02:10:23;;;;;;;9.25;3.95;;;2.10;99.90;;;;;;5078157;28;20107;-71
2022/02/25 02:12:50;;;;;;;9.75;3.33;;;2.10;99.90;;;;;;5078432;28;20021;-71
2022/02/25 02:15:17;;;;;;;8.27;3.67;;;2.00;99.90;;;;;;5078457;28;20107;-71
2022/02/25 02:17:44;;;;;;;13.27;4.05;;;2.00;99.90;;;;;;5059732;28;20297;-71
2022/02/25 02:20:13;;;;;;;13.65;3.83;;;1.90;99.90;;;;;;5076823;28;20111;-71
2022/02/25 02:22:41;;;;;;;8.32;4.47;;;1.90;99.90;;;;;;5076925;28;20043;-71
2022/02/25 02:25:08;;;;;;;11.82;4.05;;;1.80;99.90;;;;;;5077405;28;20131;-71
2022/02/25 02:30:23;;;;;;;8.15;4.07;;;1.70;99.90;;;;;;5077267;28;20043;-71
2022/02/25 02:32:50;;;;;;;9.10;3.55;;;1.60;99.90;;;;;;5076975;28;20126;-71
2022/02/25 02:35:18;;;;;;;7.70;4.20;;;1.60;99.90;;;;;;5076584;28;20031;-71
2022/02/25 02:37:45;;;;;;;8.05;3.78;;;1.70;99.90;;;;;;5077569;28;20324;-71
2022/02/25 02:40:13;;;;;;;8.82;3.45;;;1.70;99.90;;;;;;5077575;28;20488;-71
2022/02/25 02:42:40;;;;;;;7.97;4.10;;;1.70;99.90;;;;;;5077691;28;20374;-71
2022/02/25 02:45:09;;;;;;;7.10;3.50;;;1.70;99.90;;;;;;5077536;28;20455;-71
2022/02/25 02:47:36;;;;;;;16.15;3.70;;;1.70;99.90;;;;;;5077466;28;20081;-71
2022/02/25 02:50:06;;;;;;;12.57;4.15;;;1.70;99.90;;;;;;5077540;28;20021;-71
2022/02/25 02:52:33;;;;;;;10.90;3.22;;;1.70;99.90;;;;;;5077416;28;20436;-71
2022/02/25 02:55:01;;;;;;;6.68;3.47;;;1.80;99.90;;;;;;5076803;28;20416;-71
2022/02/25 02:57:28;;;;;;;5.93;3.20;;;1.80;99.90;;;;;;5077105;28;20025;-71
2022/02/25 02:59:56;;;;;;;11.55;3.72;;;1.80;99.90;;;;;;5077022;28;20024;-71
2022/02/25 03:02:23;;;;;;;7.10;3.83;;;1.90;99.90;;;;;;5059011;28;20025;-71
2022/02/25 03:04:50;;;;;;;8.15;3.78;;;1.90;99.90;;;;;;5076453;28;20020;-71
2022/02/25 03:07:18;;;;;;;9.25;2.45;;;2.00;99.90;;;;;;5076444;28;20033;-71
2022/02/25 03:09:45;;;;;;;6.50;2.85;;;2.00;99.90;;;;;;5076586;28;20074;-71
2022/02/25 03:12:12;;;;;;;3.97;2.53;;;2.00;99.90;;;;;;5076499;28;20108;-71
2022/02/25 03:14:40;;;;;;;7.68;3.38;;;2.00;99.90;;;;;;5059482;28;20025;-71
2022/02/25 03:17:07;;;;;;;7.28;3.78;;;2.10;99.90;;;;;;5077261;28;20316;-71
2022/02/25 03:19:35;;;;;;;8.90;2.90;;;2.10;99.90;;;;;;5077218;28;20103;-71
2022/02/25 03:22:03;;;;;;;12.32;4.15;;;2.10;99.90;;;;;;5077391;28;20077;-71
2022/02/25 03:24:30;;;;;;;5.50;2.92;;;2.10;99.90;;;;;;5077077;28;20040;-71
2022/02/25 03:26:58;;;;;;;5.15;2.53;;;2.10;99.90;;;;;;5077706;28;20089;-71
2022/02/25 03:29:26;;;;;;;6.22;2.70;;;2.10;99.90;;;;;;5077093;28;20336;-71
2022/02/25 03:31:53;;;;;;;4.60;2.28;;;2.10;99.90;;;;;;5076313;28;20017;-71
2022/02/25 03:34:20;;;;;;;5.68;2.92;;;2.00;99.90;;;;;;5076096;28;20012;-71
2022/02/25 03:36:48;;;;;;;5.65;3.38;;;2.00;99.90;;;;;;5076182;28;20092;-71
2022/02/25 03:39:16;;;;;;;7.80;2.83;;;2.00;99.90;;;;;;5076626;28;20017;-71
2022/02/25 03:41:43;;;;;;;4.60;2.70;;;2.00;99.90;;;;;;5076272;28;20431;-71
2022/02/25 03:44:11;;;;;;;4.65;2.50;;;2.00;99.90;;;;;;5075942;28;20043;-71
2022/02/25 03:46:39;;;;;;;6.85;2.60;;;2.00;99.90;;;;;;5076044;28;20025;-71
2022/02/25 03:49:06;;;;;;;11.32;2.78;;;1.90;99.90;;;;;;5079909;28;20017;-71
2022/02/25 03:51:34;;;;;;;13.75;2.30;;;1.90;99.90;;;;;;5080886;28;20056;-71
2022/02/25 03:54:01;;;;;;;7.53;3.67;;;1.90;99.90;;;;;;5063805;28;20090;-71
2022/02/25 03:56:28;;;;;;;5.97;2.50;;;1.90;99.90;;;;;;5079905;28;20016;-71
2022/02/25 03:58:56;;;;;;;3.17;2.15;;;1.90;99.90;;;;;;5080862;28;20020;-71
2022/02/25 04:01:24;;;;;;;8.05;3.15;;;2.00;99.90;;;;;;5081070;28;20048;-71
2022/02/25 04:03:52;;;;;;;10.60;4.07;;;2.00;99.90;;;;;;5080565;28;20016;-71
2022/02/25 04:06:19;;;;;;;10.18;2.33;;;2.00;99.90;;;;;;5080832;28;20067;-71
2022/02/25 04:08:47;;;;;;;6.15;3.13;;;2.10;99.90;;;;;;5079467;28;20023;-71
2022/02/25 04:11:14;;;;;;;5.10;2.63;;;2.20;99.90;;;;;;5079396;28;20028;-71
2022/02/25 04:13:41;;;;;;;8.07;3.25;;;2.20;99.90;;;;;;5079950;28;20044;-71
2022/02/25 04:16:10;;;;;;;8.80;2.83;;;2.20;99.90;;;;;;5079467;28;20063;-71
2022/02/25 04:18:37;;;;;;;7.90;1.90;;;2.30;99.90;;;;;;5079834;28;20020;-71
2022/02/25 04:21:04;;;;;;;6.55;2.83;;;2.30;99.90;;;;;;5079241;28;20020;-71
2022/02/25 04:23:31;;;;;;;6.40;2.28;;;2.30;99.90;;;;;;5078998;28;20048;-71
2022/02/25 04:25:59;;;;;;;8.32;2.47;;;2.40;99.90;;;;;;5079582;28;20339;-71
2022/02/25 04:28:27;;;;;;;6.40;1.95;;;2.40;99.90;;;;;;5080599;28;20055;-71
2022/02/25 04:30:54;;;;;;;9.07;2.28;;;2.40;99.90;;;;;;5080243;28;20036;-71
2022/02/25 04:33:22;;;;;;;6.18;1.85;;;2.40;99.90;;;;;;5079924;28;20020;-71
2022/02/25 04:35:50;;;;;;;8.90;1.90;;;2.40;99.90;;;;;;5080670;28;20059;-71
2022/02/25 04:38:17;;;;;;;6.00;2.28;;;2.50;99.90;;;;;;5079768;28;20040;-71
2022/02/25 04:40:45;;;;;;;5.97;1.80;;;2.50;99.90;;;;;;5080378;28;20397;-71
2022/02/25 04:43:12;;;;;;;4.78;1.60;;;2.50;99.90;;;;;;5080183;28;20097;-71
2022/02/25 04:45:39;;;;;;;5.75;1.95;;;2.50;99.90;;;;;;5079051;28;20020;-71
2022/02/25 04:48:07;;;;;;;3.33;2.00;;;2.50;99.90;;;;;;5078959;28;20039;-71
2022/02/25 04:50:35;;;;;;;4.80;1.65;;;2.50;99.90;;;;;;5061140;28;20025;-71
2022/02/25 04:53:02;;;;;;;7.28;1.85;;;2.50;99.90;;;;;;5060809;28;20032;-71
2022/02/25 04:55:30;;;;;;;8.65;1.90;;;2.50;99.90;;;;;;5078826;28;20055;-71
2022/02/25 04:57:57;;;;;;;12.13;2.45;;;2.50;99.90;;;;;;5078399;28;20021;-71
2022/02/25 05:00:24;;;;;;;4.95;1.48;;;2.50;99.90;;;;;;5061473;28;20036;-71
2022/02/25 05:02:52;;;;;;;5.07;1.98;;;2.50;99.90;;;;;;5078495;28;20021;-71
2022/02/25 05:05:23;;;;;;;8.10;2.35;;;2.40;99.90;;;;;;5062093;28;20401;-71
2022/02/25 05:07:51;;;;;;;4.72;1.73;;;2.40;99.90;;;;;;5079208;28;20031;-71
2022/02/25 05:10:19;;;;;;;4.13;1.80;;;2.40;99.90;;;;;;5079133;28;20039;-71
2022/02/25 05:12:47;;;;;;;5.35;1.52;;;2.40;99.90;;;;;;5079620;28;20020;-71
2022/02/25 05:20:46;;;;;;;5.03;1.50;;;2.40;99.90;;;;;;5079386;28;20028;-71
2022/02/25 05:23:13;;;;;;;6.22;2.00;;;2.40;99.90;;;;;;5077866;28;20040;-71
2022/02/25 05:25:40;;;;;;;7.20;1.77;;;2.40;99.90;;;;;;5061054;28;20308;-71
2022/02/25 05:28:08;;;;;;;7.18;1.73;;;2.40;99.90;;;;;;5077879;28;20052;-71
2022/02/25 05:30:35;;;;;;;4.13;1.48;;;2.30;99.90;;;;;;5078678;28;20024;-71
2022/02/25 05:33:03;;;;;;;5.78;1.35;;;2.30;99.90;;;;;;5077806;28;20028;-71
2022/02/25 05:35:31;;;;;;;6.78;1.88;;;2.30;99.90;;;;;;5077765;28;20024;-71
2022/02/25 05:37:58;;;;;;;8.38;2.30;;;2.20;99.90;;;;;;5077664;28;20017;-71
2022/02/25 05:40:26;;;;;;;5.70;1.60;;;2.20;99.90;;;;;;5078114;28;20021;-71
2022/02/25 05:42:53;;;;;;;7.57;2.47;;;2.10;99.90;;;;;;5078616;28;20328;-71
2022/02/25 05:45:21;;;;;;;9.25;1.67;;;2.10;99.90;;;;;;5078911;28;20099;-71
2022/02/25 05:47:48;;;;;;;5.55;2.72;;;2.10;99.90;;;;;;5078496;28;20493;-71
2022/02/25 05:50:19;;;;;;;4.47;1.35;;;2.00;99.90;;;;;;5078796;28;20029;-71
2022/02/25 05:52:47;;;;;;;6.65;1.50;;;2.00;99.90;;;;;;5078350;28;20025;-71
2022/02/25 05:55:23;;;;;;;6.53;1.23;;;2.00;99.90;;;;;;5079433;28;20337;-71
2022/02/25 05:57:54;;;;;;;5.60;1.77;;;2.00;99.90;;;;;;5078366;28;20040;-71
2022/02/25 06:00:22;;;;;;;5.70;1.58;;;1.90;99.90;;;;;;5077425;28;20476;-71
2022/02/25 06:02:50;;;;;;;8.73;1.50;;;2.00;99.90;;;;;;5059866;28;20103;-71
2022/02/25 06:05:19;;;;;;;8.82;2.28;;;1.90;99.90;;;;;;5077242;28;20107;-71
2022/02/25 06:07:47;;;;;;;7.25;1.92;;;1.90;99.90;;;;;;5077338;28;20039;-71
2022/02/25 06:10:18;;;;;;;5.90;1.23;;;1.90;99.90;;;;;;5076954;28;20021;-71
2022/02/25 06:12:46;;;;;;;4.32;1.77;;;1.90;99.90;;;;;;5059230;28;20028;-71
2022/02/25 06:15:13;;;;;;;2.67;0.88;;;1.90;99.90;;;;;;5059319;28;20031;-71
2022/02/25 06:17:48;;;;;;;6.38;1.52;;;1.90;99.90;;;;;;5059928;28;20108;-71
2022/02/25 06:20:18;;;;;;;5.80;1.38;;;1.90;99.90;;;;;;5077898;28;20030;-71
2022/02/25 06:22:45;;;;;;;7.35;1.38;;;1.90;99.90;;;;;;5077656;28;20025;-71
2022/02/25 06:25:14;;;;;;;5.60;1.80;;;1.80;99.90;;;;;;5078349;28;20064;-71
2022/02/25 06:27:42;;;;;;;4.55;2.15;;;1.90;99.90;;;;;;5077701;28;20052;-71
2022/02/25 06:30:12;;;;;;;6.65;1.73;;;1.90;99.90;;;;;;5077737;28;20032;-71
2022/02/25 06:32:40;;;;;;;5.63;1.23;;;1.90;99.90;;;;;;5060080;28;20055;-71
2022/02/25 06:35:09;;;;;;;4.43;1.10;;;1.90;99.90;;;;;;5076951;28;20083;-70
2022/02/25 06:37:37;;;;;;;10.98;1.65;;;1.90;99.90;;;;;;5076592;28;20097;-70
2022/02/25 06:43:17;;;;;;;6.28;1.08;;;2.00;99.90;;;;;;5076673;28;20043;-74
2022/02/25 06:45:45;;;;;;;3.22;1.30;;;1.90;99.90;;;;;;5058905;28;20028;-74
2022/02/25 06:48:13;;;;;;;9.82;2.03;;;1.90;99.90;;;;;;5076861;28;20417;-72
2022/02/25 06:50:40;;;;;;;4.70;1.05;;;2.00;99.90;;;;;;5076779;28;20024;-72
2022/02/25 06:53:08;;;;;;;8.63;1.00;;;1.90;99.90;;;;;;5059130;28;20116;-72
2022/02/25 06:55:35;;;;;;;3.83;1.40;;;1.90;99.90;;;;;;5077524;28;20016;-71
2022/02/25 06:58:04;;;;;;;9.63;0.98;;;1.90;99.90;;;;;;5077393;28;20039;-71
2022/02/25 07:00:37;;;;;;;6.60;1.02;;;2.00;99.90;;;;;;5077688;28;20023;-72
2022/02/25 07:03:06;;;;;;;7.47;1.02;;;2.00;99.90;;;;;;5077886;28;20081;-72
2022/02/25 07:05:33;;;;;;;8.48;2.25;;;2.00;99.90;;;;;;5077332;28;20101;-73
2022/02/25 07:08:01;;;;;;;11.65;1.63;;;2.10;99.90;;;;;;5077316;28;20025;-71
2022/02/25 07:10:29;;;;;;;6.03;1.60;;;2.10;99.90;;;;;;5076985;28;20025;-71
2022/02/25 07:12:56;;;;;;;9.93;2.13;;;2.20;99.90;;;;;;5076570;28;20025;-72
2022/02/25 07:15:24;;;;;;;7.78;1.48;;;2.30;99.90;;;;;;5076885;28;20289;-72
2022/02/25 07:17:52;;;;;;;8.85;1.35;;;2.30;99.90;;;;;;5076857;28;20034;-72
2022/02/25 07:20:20;;;;;;;8.13;1.85;;;2.30;99.90;;;;;;5076454;28;20012;-72
2022/02/25 07:22:47;;;;;;;3.10;1.40;;;2.30;99.90;;;;;;5077360;28;20048;-72
2022/02/25 07:25:16;;;;;;;10.90;1.58;;;2.30;99.90;;;;;;5080589;28;20064;-73
2022/02/25 07:27:45;;;;;;;6.40;1.85;;;2.40;99.90;;;;;;5080450;28;20021;-72
2022/02/25 07:30:14;;;;;;;17.02;1.77;;;2.50;99.90;;;;;;5080662;28;20331;-72
2022/02/25 07:32:41;;;;;;;8.15;1.85;;;2.60;99.90;;;;;;5081140;28;20024;-71
2022/02/25 07:35:11;;;;;;;7.55;1.63;;;2.70;99.90;;;;;;5080953;28;20017;-71
2022/02/25 07:37:39;;;;;;;5.63;1.55;;;2.70;99.90;;;;;;5081482;28;20392;-71
2022/02/25 07:40:07;;;;;;;4.93;1.45;;;2.80;99.90;;;;;;5080899;28;20020;-71
2022/02/25 07:42:35;;;;;;;5.18;1.52;;;2.90;99.90;;;;;;5081438;28;20495;-71
2022/02/25 07:45:03;;;;;;;7.20;1.67;;;3.00;99.90;;;;;;5081360;28;20036;-70
2022/02/25 07:47:31;;;;;;;7.10;1.45;;;3.00;99.90;;;;;;5080276;28;20103;-68
2022/02/25 07:49:58;;;;;;;8.98;2.05;;;3.00;99.90;;;;;;5079605;28;20024;-68
2022/02/25 07:52:25;;;;;;;9.23;2.10;;;3.10;99.90;;;;;;5079736;28;20028;-69
2022/02/25 07:54:53;;;;;;;10.43;2.20;;;3.10;99.90;;;;;;5079692;28;20151;-69
2022/02/25 07:57:21;;;;;;;10.10;1.90;;;3.10;99.90;;;;;;5079807;28;20031;-69
2022/02/25 07:59:48;;;;;;;6.40;1.30;;;3.10;99.90;;;;;;5079598;28;20020;-71
2022/02/25 08:02:16;;;;;;;12.57;1.83;;;3.20;99.90;;;;;;5079441;28;20029;-69
2022/02/25 08:04:44;;;;;;;12.88;1.90;;;3.20;99.90;;;;;;5061739;28;20025;-70
2022/02/25 08:07:11;;;;;;;9.43;1.52;;;3.20;99.90;;;;;;5080882;28;20102;-70
2022/02/25 08:09:39;;;;;;;12.20;2.00;;;3.30;99.90;;;;;;5080410;28;20027;-70
2022/02/25 08:12:07;;;;;;;11.40;1.85;;;3.40;99.90;;;;;;5080580;28;20107;-70
2022/02/25 08:14:38;;;;;;;13.45;1.30;;;3.50;99.90;;;;;;5080266;28;20070;-70
2022/02/25 08:17:06;;;;;;;6.30;1.63;;;3.50;99.90;;;;;;5080423;28;20034;-71
2022/02/25 08:19:33;;;;;;;8.70;2.40;;;3.60;99.90;;;;;;5080242;28;20328;-70
2022/02/25 08:22:01;;;;;;;7.72;1.80;;;3.70;99.90;;;;;;5080149;28;20038;-70
2022/02/25 08:24:29;;;;;;;10.90;2.08;;;3.80;99.90;;;;;;5058774;28;20045;-70
2022/02/25 08:26:57;;;;;;;12.00;2.03;;;3.90;99.90;;;;;;5059315;28;20416;-71
2022/02/25 08:29:25;;;;;;;15.55;1.55;;;3.90;99.90;;;;;;5059067;28;20043;-72
2022/02/25 08:31:53;;;;;;;10.38;2.28;;;3.90;99.90;;;;;;5057997;28;20036;-72
2022/02/25 08:34:21;;;;;;;6.53;1.60;;;3.80;99.90;;;;;;5059093;28;20113;-71
2022/02/25 08:36:49;;;;;;;9.45;1.50;;;3.80;99.90;;;;;;5059722;28;20096;-72
2022/02/25 08:39:18;;;;;;;13.35;2.50;;;3.70;99.90;;;;;;5058838;28;20029;-72
2022/02/25 08:41:46;;;;;;;6.90;1.50;;;3.70;99.90;;;;;;5058202;28;20063;-72
2022/02/25 08:44:14;;;;;;;7.90;1.75;;;3.60;99.90;;;;;;5058727;28;20028;-71
2022/02/25 08:46:44;;;;;;;6.82;1.95;;;3.60;99.90;;;;;;5058327;28;20536;-72
2022/02/25 08:49:13;;;;;;;7.07;1.67;;;3.60;99.90;;;;;;5059787;28;20298;-71
2022/02/25 08:51:42;;;;;;;9.25;2.83;;;3.70;99.90;;;;;;5060101;28;20025;-77
2022/02/25 08:54:16;;;;;;;9.05;2.20;;;3.80;99.90;;;;;;5059369;28;20025;-77
2022/02/25 08:56:44;;;;;;;7.47;1.58;;;3.80;99.90;;;;;;5059447;28;20017;-70
2022/02/25 08:59:12;;;;;;;9.10;2.35;;;4.00;99.90;;;;;;5059398;28;20036;-70
2022/02/25 09:01:40;;;;;;;9.30;2.45;;;4.10;99.90;;;;;;5059328;28;20028;-69
2022/02/25 09:04:08;;;;;;;7.25;2.10;;;4.10;99.90;;;;;;5059302;28;20023;-70
2022/02/25 09:06:40;;;;;;;6.65;1.83;;;4.10;99.90;;;;;;5059045;28;20032;-70
2022/02/25 09:09:07;;;;;;;14.32;2.03;;;4.10;99.90;;;;;;5058195;28;20025;-70
2022/02/25 09:11:35;;;;;;;21.33;2.70;;;4.10;99.90;;;;;;5058975;28;20035;-70
2022/02/25 09:14:04;;;;;;;9.95;1.40;;;4.10;99.90;;;;;;5058790;28;20097;-69
2022/02/25 09:16:32;;;;;;;14.80;2.70;;;4.10;99.90;;;;;;5058538;28;20025;-70
2022/02/25 09:18:59;;;;;;;12.63;2.78;;;4.10;99.90;;;;;;5058693;28;20044;-70
2022/02/25 09:21:28;;;;;;;13.35;2.90;;;4.10;99.90;;;;;;5058800;28;20020;-70
2022/02/25 09:23:56;;;;;;;10.55;2.65;;;4.10;99.90;;;;;;5068336;28;20077;-70
2022/02/25 09:26:23;;;;;;;14.65;2.60;;;4.10;99.90;;;;;;5078087;28;20027;-69
2022/02/25 09:28:51;;;;;;;14.15;3.30;;;4.10;99.90;;;;;;5078093;28;20017;-70
2022/02/25 09:31:18;;;;;;;11.32;2.15;;;4.20;99.90;;;;;;5079444;28;20086;-71
2022/02/25 09:33:46;;;;;;;16.10;2.97;;;4.20;99.90;;;;;;5078700;28;20025;-71
2022/02/25 09:36:14;;;;;;;9.57;2.55;;;4.20;99.90;;;;;;5078797;28;20052;-70
2022/02/25 09:38:42;;;;;;;9.82;1.83;;;4.10;99.90;;;;;;5078676;28;20070;-70
2022/02/25 09:41:11;;;;;;;16.58;2.60;;;4.10;99.90;;;;;;5078773;28;20020;-71
2022/02/25 09:43:39;;;;;;;5.97;2.45;;;4.10;99.90;;;;;;5078530;28;20028;-70
2022/02/25 09:46:07;;;;;;;9.15;2.75;;;4.00;99.90;;;;;;5078241;28;20099;-69
2022/02/25 09:48:34;;;;;;;5.55;2.03;;;4.00;99.90;;;;;;5078536;28;20051;-69
2022/02/25 09:51:02;;;;;;;8.80;2.75;;;3.90;99.90;;;;;;5077522;28;20297;-70
2022/02/25 09:53:30;;;;;;;10.60;2.50;;;3.70;99.90;;;;;;5077268;28;20036;-69
2022/02/25 09:55:57;;;;;;;9.82;2.58;;;3.60;99.90;;;;;;5059701;28;20416;-69
2022/02/25 09:58:24;;;;;;;7.40;2.35;;;3.60;99.90;;;;;;5077325;28;20412;-69
2022/02/25 10:00:52;;;;;;;8.77;2.30;;;3.50;99.90;;;;;;5077957;28;20017;-70
2022/02/25 10:03:29;;;;;;;5.78;2.60;;;3.50;99.90;;;;;;5077237;28;20077;-70
2022/02/25 10:06:06;;;;;;;8.77;3.15;;;3.50;99.90;;;;;;5077297;28;20032;-70
2022/02/25 10:08:33;;;;;;;;;;;3.40;99.90;;;;;;5077617;28;20021;-70
2022/02/25 10:11:02;;;;;;;9.43;3.13;;;3.50;99.90;;;;;;5059405;28;20259;-70
2022/02/25 10:13:31;;;;;;;13.45;3.88;;;3.50;99.90;;;;;;5077886;28;20029;-70
2022/02/25 10:16:09;;;;;;;13.32;3.22;;;3.50;99.90;;;;;;5078487;28;20021;-69
2022/02/25 10:18:37;;;;;;;7.15;2.95;;;3.50;99.90;;;;;;5060344;28;20025;-70
2022/02/25 10:21:07;;;;;;;7.97;2.70;;;3.60;99.90;;;;;;5078412;28;20029;-70
2022/02/25 10:23:39;;;;;;;8.05;2.70;;;3.60;99.90;;;;;;5056581;28;20411;-70
2022/02/25 10:26:20;;;;;;;10.45;3.33;;;3.50;99.90;;;;;;5057837;28;20033;-71
2022/02/25 10:28:52;;;;;;;6.22;2.35;;;3.40;99.90;;;;;;5057592;28;20305;-70
2022/02/25 10:31:23;;;;;;;8.95;3.08;;;3.40;99.90;;;;;;5057676;28;20027;-69
2022/02/25 10:34:03;;;;;;;6.75;3.13;;;3.30;99.90;;;;;;5056743;28;20079;-73
2022/02/25 10:36:46;;;;;;;8.25;3.95;;;3.20;99.90;;;;;;5057404;28;20025;-71
2022/02/25 10:39:27;;;;;;;10.15;3.60;;;3.20;99.90;;;;;;5056616;28;20024;-72
2022/02/25 10:42:11;;;;;;;9.27;3.28;;;3.30;99.90;;;;;;5057156;28;20087;-70
2022/02/25 10:44:49;;;;;;;7.82;3.70;;;3.40;99.90;;;;;;5056520;28;20108;-69
2022/02/25 10:47:36;;;;;;;12.88;5.35;;;3.50;99.90;;;;;;5056982;28;20021;-71
2022/02/25 10:50:05;;;;;;;;;;;3.70;99.90;;;;;;5056916;28;20100;-70
2022/02/25 10:52:39;;;;;;;5.47;3.05;;;3.90;99.90;;;;;;5057561;28;19909;-70
2022/02/25 10:55:17;;;;;;;12.13;4.75;;;4.10;99.90;;;;;;5057448;28;20079;-69
2022/02/25 10:57:47;;;;;;;10.38;3.80;;;4.20;99.90;;;;;;5057397;28;20036;-69
2022/02/25 11:00:16;;;;;;;10.60;3.75;;;4.20;99.90;;;;;;5057467;28;20476;-69
2022/02/25 11:02:52;;;;;;;9.75;3.95;;;4.20;99.90;;;;;;5057729;28;20029;-69
2022/02/25 11:05:26;;;;;;;11.68;4.55;;;4.20;99.90;;;;;;5057685;28;20083;-69
2022/02/25 11:07:58;;;;;;;11.10;3.55;;;4.30;99.90;;;;;;5057871;28;20381;-69
2022/02/25 11:10:31;;;;;;;11.30;3.65;;;4.50;99.90;;;;;;5057881;28;20029;-69
2022/02/25 11:13:07;;;;;;;7.97;3.22;;;4.80;99.90;;;;;;5055964;28;20029;-70
2022/02/25 11:15:42;;;;;;;7.22;3.30;;;4.90;99.90;;;;;;5056470;28;20035;-69
2022/02/25 11:18:11;;;;;;;;;;;5.00;99.90;;;;;;5056687;28;20036;-69
2022/02/25 11:20:43;;;;;;;9.00;3.72;;;4.90;99.90;;;;;;5056244;28;19948;-69
2022/02/25 11:23:17;;;;;;;9.32;4.10;;;4.90;99.90;;;;;;5061455;28;20344;-70
2022/02/25 11:25:47;;;;;;;12.32;3.95;;;5.00;99.90;;;;;;5076548;28;20028;-70
2022/02/25 11:28:15;;;;;;;7.80;3.45;;;5.00;99.90;;;;;;5076282;28;20028;-69
2022/02/25 11:31:06;;;;;;;11.18;3.38;;;5.00;99.90;;;;;;5076815;28;20029;-69
2022/02/25 11:33:34;;;;;;;18.25;4.60;;;5.00;99.90;;;;;;5076078;28;20104;-70
2022/02/25 11:36:08;;;;;;;11.88;4.28;;;4.90;99.90;;;;;;5059667;28;20022;-70
2022/02/25 11:38:40;;;;;;;11.25;3.58;;;5.00;99.90;;;;;;5077014;28;20024;-69
2022/02/25 11:41:20;;;;;;;13.25;4.05;;;5.00;99.90;;;;;;5077210;28;20420;-70
2022/02/25 11:43:51;;;;;;;8.80;3.85;;;5.00;99.90;;;;;;5077564;28;20024;-69
2022/02/25 11:46:34;;;;;;;14.38;4.22;;;4.90;99.90;;;;;;5076958;28;20024;-69
2022/02/25 11:49:09;;;;;;;17.15;3.70;;;4.80;99.90;;;;;;5077560;28;20021;-69
2022/02/25 11:51:56;;;;;;;15.43;3.63;;;4.70;99.90;;;;;;5077589;28;20351;-69
2022/02/25 11:54:27;;;;;;;11.98;3.03;;;4.60;99.90;;;;;;5077239;28;20032;-69
2022/02/25 11:57:05;;;;;;;7.95;3.15;;;4.60;99.90;;;;;;5076409;28;20305;-69
2022/02/25 11:59:35;;;;;;;11.15;3.55;;;4.60;99.90;;;;;;5076559;28;20017;-69
2022/02/25 12:02:14;;;;;;;10.77;3.25;;;4.60;99.90;;;;;;5076698;28;20032;-69
2022/02/25 12:04:46;;;;;;;8.63;3.38;;;4.60;99.90;;;;;;5075825;28;20025;-69
2022/02/25 12:07:32;;;;;;;8.25;3.58;;;4.70;99.90;;;;;;5075804;28;20024;-69
2022/02/25 12:10:14;;;;;;;6.82;3.58;;;5.00;99.90;;;;;;5079292;28;20021;-69
2022/02/25 12:12:47;;;;;;;8.73;3.40;;;5.40;99.90;;;;;;5079348;28;20105;-69
2022/02/25 12:15:19;;;;;;;8.30;2.80;;;5.60;99.90;;;;;;5079743;28;20294;-69
2022/02/25 12:17:53;;;;;;;8.35;3.03;;;5.70;99.90;;;;;;5079461;28;20028;-69
2022/02/25 12:20:28;;;;;;;17.25;3.75;;;5.80;99.90;;;;;;5080700;28;20021;-69
2022/02/25 12:23:04;;;;;;;10.80;3.20;;;5.80;99.90;;;;;;5080014;28;20028;-70
2022/02/25 12:25:37;;;;;;;;;;;6.00;99.90;;;;;;5081165;28;20081;-69
2022/02/25 12:28:28;;;;;;;8.27;2.80;;;6.10;99.90;;;;;;5080919;28;19908;-70
2022/02/25 12:30:59;;;;;;;7.47;3.38;;;6.10;99.90;;;;;;5080646;28;20473;-69
2022/02/25 12:33:41;;;;;;;9.65;3.28;;;6.00;99.90;;;;;;5080475;28;20421;-69
2022/02/25 12:36:31;;;;;;;11.32;3.40;;;5.70;99.90;;;;;;5062170;28;20074;-69
2022/02/25 12:39:14;;;;;;;8.50;3.97;;;5.40;99.90;;;;;;5079748;28;20302;-70
2022/02/25 12:41:43;;;;;;;5.90;3.17;;;5.20;99.90;;;;;;5079287;28;20023;-70
2022/02/25 12:44:14;;;;;;;10.38;3.10;;;5.10;99.90;;;;;;5061202;28;20024;-69
2022/02/25 12:46:48;;;;;;;8.65;2.95;;;5.10;99.90;;;;;;5079423;28;20397;-69
2022/02/25 12:49:18;;;;;;;16.67;4.68;;;5.10;99.90;;;;;;5079543;28;20024;-69
2022/02/25 12:51:46;;;;;;;9.75;3.78;;;5.20;99.90;;;;;;5079105;28;20025;-70
2022/02/25 12:54:16;;;;;;;9.48;3.05;;;5.30;99.90;;;;;;5078986;28;20413;-69
2022/02/25 12:56:51;;;;;;;16.30;3.88;;;5.30;99.90;;;;;;5078946;28;20031;-69
2022/02/25 12:59:45;;;;;;;11.63;4.25;;;5.30;99.90;;;;;;5078668;28;20021;-70
2022/02/25 13:02:16;;;;;;;11.82;3.85;;;5.10;99.90;;;;;;5079715;28;20025;-69
2022/02/25 13:04:46;;;;;;;11.70;2.70;;;5.00;99.90;;;;;;5079513;28;20104;-69
2022/02/25 13:07:16;;;;;;;8.20;2.70;;;4.80;99.90;;;;;;5079388;28;20029;-69
2022/02/25 13:09:44;;;;;;;15.10;3.97;;;4.50;99.90;;;;;;5061631;28;20048;-69
2022/02/25 13:12:15;;;;;;;11.23;3.85;;;4.20;99.90;;;;;;5079346;28;20085;-70
2022/02/25 13:14:46;;;;;;;17.30;3.50;;;4.10;99.90;;;;;;5079254;28;20017;-70
2022/02/25 13:17:20;;;;;;;15.25;4.10;;;3.90;99.90;;;;;;5079288;28;20017;-70
2022/02/25 13:19:49;;;;;;;16.92;3.47;;;3.90;99.90;;;;;;5077678;28;20024;-70